createdAt,value
2023-01-08T00:02:09.828Z,61.35
2023-01-08T00:04:37.471Z,86.85
2023-01-08T00:07:05.707Z,72.80
2023-01-08T00:09:33.245Z,67.47
2023-01-08T00:12:00.487Z,65.05
2023-01-08T00:14:28.079Z,64.82
2023-01-08T00:16:55.345Z,72.15
2023-01-08T00:19:22.962Z,78.88
2023-01-08T00:21:50.108Z,85.60
2023-01-08T00:24:17.539Z,81.40
2023-01-08T00:26:44.637Z,72.82
2023-01-08T00:29:12.141Z,68.22
2023-01-08T00:31:39.440Z,69.53
2023-01-08T00:34:06.886Z,74.03
2023-01-08T00:36:34.037Z,73.75
2023-01-08T00:39:01.756Z,72.75
2023-01-08T00:41:29.014Z,70.18
2023-01-08T00:43:56.510Z,66.57
2023-01-08T00:46:23.758Z,65.80
2023-01-08T00:48:51.348Z,71.75
2023-01-08T00:51:18.775Z,63.17
2023-01-08T00:53:46.158Z,69.55
2023-01-08T00:56:13.348Z,64.18
2023-01-08T00:58:40.798Z,65.40
2023-01-08T01:01:15.479Z,69.30
2023-01-08T01:03:43.329Z,67.43
2023-01-08T01:06:11.605Z,72.85
2023-01-08T01:08:39.372Z,65.85
2023-01-08T01:11:11.652Z,68.57
2023-01-08T01:13:39.141Z,73.50
2023-01-08T01:16:06.596Z,71.07
2023-01-08T01:18:34.081Z,70.38
2023-01-08T01:21:01.385Z,79.45
2023-01-08T01:23:29.158Z,73.32
2023-01-08T01:25:56.284Z,74.38
2023-01-08T01:28:23.740Z,78.93
2023-01-08T01:30:57.892Z,66.07
2023-01-08T01:33:25.394Z,77.88
2023-01-08T01:36:02.904Z,76.15
2023-01-08T01:38:30.802Z,77.85
2023-01-08T01:40:58.007Z,69.38
2023-01-08T01:43:35.556Z,78.82
2023-01-08T01:46:04.915Z,74.22
2023-01-08T01:48:32.461Z,79.63
2023-01-08T01:50:59.742Z,73.18
2023-01-08T01:53:29.528Z,77.65
2023-01-08T01:55:58.475Z,79.18
2023-01-08T01:58:31.476Z,74.90
2023-01-08T02:01:02.710Z,74.97
2023-01-08T02:03:33.575Z,81.35
2023-01-08T02:06:03.574Z,75.68
2023-01-08T02:08:52.373Z,84.32
2023-01-08T02:11:34.283Z,78.57
2023-01-08T02:14:16.367Z,73.00
2023-01-08T02:16:46.983Z,72.35
2023-01-08T02:19:22.809Z,76.07
2023-01-08T02:22:05.909Z,72.18
2023-01-08T02:24:56.070Z,83.75
2023-01-08T02:29:54.943Z,70.30
2023-01-08T02:32:32.916Z,71.72
2023-01-08T02:35:00.349Z,78.68
2023-01-08T02:37:27.601Z,77.55
2023-01-08T02:40:10.797Z,76.13
2023-01-08T02:42:48.186Z,74.43
2023-01-08T02:45:28.652Z,78.97
2023-01-08T02:48:12.068Z,80.18
2023-01-08T02:50:44.981Z,75.90
2023-01-08T02:53:11.940Z,71.68
2023-01-08T02:55:42.197Z,67.50
2023-01-08T02:58:09.478Z,74.57
2023-01-08T03:00:39.596Z,75.85
2023-01-08T03:06:01.931Z,69.10
2023-01-08T03:08:29.759Z,73.68
2023-01-08T03:11:09.977Z,70.07
2023-01-08T03:16:18.373Z,64.70
2023-01-08T03:18:52.055Z,65.90
2023-01-08T03:21:22.327Z,60.45
2023-01-08T03:26:24.153Z,57.75
2023-01-08T03:28:54.669Z,67.20
2023-01-08T03:31:25.607Z,63.72
2023-01-08T03:33:53.858Z,62.15
2023-01-08T03:36:24.044Z,60.80
2023-01-08T03:41:32.823Z,55.50
2023-01-08T03:43:59.898Z,62.15
2023-01-08T03:46:34.265Z,61.85
2023-01-08T03:49:02.287Z,58.95
2023-01-08T03:51:38.841Z,57.35
2023-01-08T03:54:05.994Z,61.05
2023-01-08T03:56:33.335Z,60.15
2023-01-08T03:59:00.541Z,56.90
2023-01-08T04:01:27.969Z,58.47
2023-01-08T04:03:55.102Z,57.17
2023-01-08T04:06:22.719Z,53.97
2023-01-08T04:08:49.870Z,48.30
2023-01-08T04:11:20.378Z,52.63
2023-01-08T04:13:50.123Z,50.10
2023-01-08T04:16:17.565Z,50.15
2023-01-08T04:18:44.792Z,47.63
2023-01-08T04:21:12.402Z,50.53
2023-01-08T04:23:39.594Z,52.75
2023-01-08T04:26:09.716Z,50.08
2023-01-08T04:31:11.431Z,47.13
2023-01-08T04:33:49.429Z,47.90
2023-01-08T04:36:21.484Z,46.17
2023-01-08T04:38:48.819Z,47.13
2023-01-08T04:41:18.420Z,48.63
2023-01-08T04:43:45.582Z,44.75
2023-01-08T04:46:13.016Z,46.90
2023-01-08T04:48:40.174Z,46.58
2023-01-08T04:51:08.218Z,49.83
2023-01-08T04:53:38.412Z,47.95
2023-01-08T04:56:10.791Z,47.83
2023-01-08T04:58:39.638Z,50.72
2023-01-08T05:01:21.284Z,49.63
2023-01-08T05:03:52.869Z,49.97
2023-01-08T05:06:20.259Z,50.30
2023-01-08T05:08:47.350Z,50.67
2023-01-08T05:11:14.855Z,51.88
2023-01-08T05:13:41.955Z,51.95
2023-01-08T05:16:09.450Z,52.53
2023-01-08T05:18:36.690Z,53.67
2023-01-08T05:21:07.660Z,51.45
2023-01-08T05:23:34.818Z,50.65
2023-01-08T05:26:04.934Z,51.40
2023-01-08T05:28:32.823Z,53.72
2023-01-08T05:31:00.228Z,56.10
2023-01-08T05:33:27.555Z,57.17
2023-01-08T05:35:54.954Z,53.40
2023-01-08T05:38:22.384Z,54.42
2023-01-08T05:40:52.979Z,54.65
2023-01-08T05:43:20.147Z,55.88
2023-01-08T05:45:47.524Z,55.90
2023-01-08T05:48:14.568Z,58.03
2023-01-08T05:50:42.102Z,54.20
2023-01-08T05:53:09.897Z,55.40
2023-01-08T05:55:37.347Z,51.97
2023-01-08T05:58:05.855Z,53.83
2023-01-08T06:00:34.318Z,56.65
2023-01-08T06:03:01.393Z,54.17
2023-01-08T06:05:30.883Z,53.40
2023-01-08T06:07:58.911Z,49.27
2023-01-08T06:10:26.866Z,54.25
2023-01-08T06:12:54.215Z,54.00
2023-01-08T06:15:21.622Z,55.75
2023-01-08T06:17:48.615Z,53.47
2023-01-08T06:20:16.021Z,52.45
2023-01-08T06:22:43.319Z,56.60
2023-01-08T06:25:10.662Z,56.00
2023-01-08T06:27:40.411Z,57.55
2023-01-08T06:30:08.614Z,55.97
2023-01-08T06:32:35.710Z,55.15
2023-01-08T06:35:03.244Z,55.08
2023-01-08T06:37:30.328Z,55.13
2023-01-08T06:39:57.626Z,53.53
2023-01-08T06:42:24.781Z,53.97
2023-01-08T06:44:52.207Z,52.58
2023-01-08T06:47:19.280Z,51.85
2023-01-08T06:49:46.699Z,51.47
2023-01-08T06:52:13.686Z,50.00
2023-01-08T06:54:41.162Z,52.20
2023-01-08T06:57:08.305Z,53.47
2023-01-08T06:59:35.690Z,52.30
2023-01-08T07:02:02.931Z,53.58
2023-01-08T07:04:30.412Z,57.10
2023-01-08T07:06:57.614Z,56.90
2023-01-08T07:09:25.021Z,57.70
2023-01-08T07:11:52.021Z,56.95
2023-01-08T07:14:19.321Z,59.80
2023-01-08T07:16:46.351Z,53.95
2023-01-08T07:19:13.853Z,54.55
2023-01-08T07:21:41.159Z,56.03
2023-01-08T07:24:08.890Z,55.65
2023-01-08T07:26:36.345Z,56.58
2023-01-08T07:29:03.974Z,56.63
2023-01-08T07:31:31.320Z,57.22
2023-01-08T07:33:58.991Z,60.67
2023-01-08T07:36:26.050Z,55.78
2023-01-08T07:38:53.532Z,57.72
2023-01-08T07:41:20.626Z,54.55
2023-01-08T07:43:48.961Z,54.75
2023-01-08T07:46:16.629Z,57.28
2023-01-08T07:48:44.163Z,56.30
2023-01-08T07:51:11.404Z,53.60
2023-01-08T07:53:38.917Z,54.33
2023-01-08T07:56:10.531Z,56.88
2023-01-08T07:58:38.496Z,55.15
2023-01-08T08:01:09.846Z,55.20
2023-01-08T08:03:38.906Z,60.17
2023-01-08T08:06:06.771Z,56.58
2023-01-08T08:08:34.530Z,54.42
2023-01-08T08:11:02.112Z,71.65
2023-01-08T08:13:29.507Z,92.07
2023-01-08T08:16:02.196Z,52.58
2023-01-08T08:18:29.750Z,64.88
2023-01-08T08:20:58.061Z,70.47
2023-01-08T08:23:25.907Z,63.75
2023-01-08T08:25:53.113Z,56.78
2023-01-08T08:28:20.550Z,56.05
2023-01-08T08:30:47.858Z,54.67
2023-01-08T08:33:15.239Z,57.17
2023-01-08T08:35:48.594Z,53.90
2023-01-08T08:38:15.883Z,52.63
2023-01-08T08:40:43.120Z,56.20
2023-01-08T08:43:10.783Z,57.33
2023-01-08T08:45:38.207Z,55.67
2023-01-08T08:48:07.138Z,56.10
2023-01-08T08:50:35.671Z,53.95
2023-01-08T08:53:05.457Z,54.00
2023-01-08T08:55:33.308Z,57.55
2023-01-08T08:58:07.215Z,51.55
2023-01-08T09:00:34.536Z,52.83
2023-01-08T09:03:02.291Z,51.03
2023-01-08T09:05:30.332Z,50.65
2023-01-08T09:07:57.773Z,55.20
2023-01-08T09:10:24.929Z,52.22
2023-01-08T09:12:53.677Z,53.15
2023-01-08T09:15:21.950Z,49.55
2023-01-08T09:17:54.644Z,48.40
2023-01-08T09:20:22.553Z,50.25
2023-01-08T09:22:50.092Z,51.60
2023-01-08T09:25:17.623Z,47.80
2023-01-08T09:27:45.457Z,50.33
2023-01-08T09:30:12.704Z,47.28
2023-01-08T09:32:40.264Z,50.20
2023-01-08T09:35:07.973Z,49.03
2023-01-08T09:37:35.386Z,56.75
2023-01-08T09:40:03.296Z,47.50
2023-01-08T09:42:31.900Z,45.45
2023-01-08T09:45:00.647Z,50.97
2023-01-08T09:47:32.823Z,47.53
2023-01-08T09:50:03.306Z,48.47
2023-01-08T09:52:32.122Z,48.30
2023-01-08T09:55:00.738Z,46.50
2023-01-08T09:57:29.541Z,47.37
2023-01-08T09:59:57.281Z,49.08
2023-01-08T10:02:26.567Z,47.55
2023-01-08T10:04:58.399Z,45.22
2023-01-08T10:07:28.467Z,45.78
2023-01-08T10:09:56.292Z,43.95
2023-01-08T10:12:30.496Z,47.40
2023-01-08T10:15:02.521Z,46.47
2023-01-08T10:17:40.898Z,48.50
2023-01-08T10:20:20.454Z,44.83
2023-01-08T10:22:49.190Z,43.63
2023-01-08T10:25:22.239Z,44.42
2023-01-08T10:27:51.051Z,44.13
2023-01-08T10:30:29.386Z,42.53
2023-01-08T10:33:02.431Z,42.92
2023-01-08T10:35:41.139Z,43.42
2023-01-08T10:38:26.299Z,42.23
2023-01-08T10:40:53.908Z,47.28
2023-01-08T10:43:29.186Z,45.22
2023-01-08T10:46:08.728Z,44.10
2023-01-08T10:51:26.155Z,42.90
2023-01-08T10:53:55.884Z,42.78
2023-01-08T10:56:29.287Z,43.92
2023-01-08T10:58:57.108Z,42.75
2023-01-08T11:01:25.313Z,46.17
2023-01-08T11:04:20.758Z,44.67
2023-01-08T11:06:48.517Z,40.92
2023-01-08T11:09:15.972Z,43.08
2023-01-08T11:11:43.074Z,45.80
2023-01-08T11:14:24.241Z,42.17
2023-01-08T11:16:51.633Z,43.30
2023-01-08T11:19:30.177Z,44.53
2023-01-08T11:22:17.405Z,42.85
2023-01-08T11:24:46.193Z,43.13
2023-01-08T11:27:13.328Z,45.53
2023-01-08T11:29:50.104Z,42.63
2023-01-08T11:32:54.893Z,43.42
2023-01-08T11:35:28.644Z,42.58
2023-01-08T11:37:58.286Z,43.55
2023-01-08T11:40:32.027Z,42.85
2023-01-08T11:43:08.304Z,40.92
2023-01-08T11:46:12.839Z,43.90
2023-01-08T11:49:05.820Z,44.08
2023-01-08T11:51:57.343Z,42.35
2023-01-08T11:55:01.175Z,39.00
2023-01-08T11:57:47.302Z,39.97
2023-01-08T12:00:36.250Z,43.30
2023-01-08T12:03:22.028Z,41.63
2023-01-08T12:06:11.874Z,39.35
2023-01-08T12:09:04.030Z,42.58
2023-01-08T12:11:36.901Z,47.00
2023-01-08T12:14:58.161Z,43.80
2023-01-08T12:17:53.550Z,44.17
2023-01-08T12:20:44.304Z,40.30
2023-01-08T12:23:23.204Z,47.95
2023-01-08T12:25:59.614Z,39.50
2023-01-08T12:29:03.474Z,44.05
2023-01-08T12:32:01.951Z,44.67
2023-01-08T12:34:51.309Z,47.58
2023-01-08T12:37:29.025Z,41.28
2023-01-08T12:40:15.509Z,42.33
2023-01-08T12:42:50.161Z,41.70
2023-01-08T12:45:21.368Z,42.78
2023-01-08T12:47:57.046Z,41.88
2023-01-08T12:50:26.857Z,43.38
2023-01-08T12:53:19.094Z,45.53
2023-01-08T12:55:56.499Z,38.70
2023-01-08T12:58:29.579Z,42.58
2023-01-08T13:01:06.330Z,41.15
2023-01-08T13:03:34.166Z,42.40
2023-01-08T13:06:11.575Z,44.60
2023-01-08T13:08:41.996Z,42.30
2023-01-08T13:11:09.871Z,43.53
2023-01-08T13:13:45.168Z,41.17
2023-01-08T13:16:14.065Z,50.70
2023-01-08T13:18:50.800Z,43.27
2023-01-08T13:21:18.121Z,44.72
2023-01-08T13:23:45.508Z,42.85
2023-01-08T13:26:12.821Z,44.72
2023-01-08T13:28:45.353Z,44.70
2023-01-08T13:31:28.364Z,45.35
2023-01-08T13:33:56.056Z,41.08
2023-01-08T13:36:24.904Z,46.22
2023-01-08T13:39:10.480Z,43.67
2023-01-08T13:42:01.584Z,40.83
2023-01-08T13:44:42.391Z,41.15
2023-01-08T13:47:28.303Z,42.42
2023-01-08T13:49:56.759Z,45.47
2023-01-08T13:52:35.018Z,46.47
2023-01-08T13:55:05.957Z,43.30
2023-01-08T13:57:39.304Z,42.10
2023-01-08T14:00:17.539Z,44.95
2023-01-08T14:02:50.645Z,42.58
2023-01-08T14:05:29.223Z,45.85
2023-01-08T14:07:57.808Z,42.58
2023-01-08T14:10:27.349Z,42.67
2023-01-08T14:13:02.036Z,42.22
2023-01-08T14:15:29.627Z,40.67
2023-01-08T14:17:57.766Z,44.05
2023-01-08T14:20:40.697Z,42.88
2023-01-08T14:23:21.251Z,43.13
2023-01-08T14:25:49.822Z,50.88
2023-01-08T14:28:21.446Z,60.83
2023-01-08T14:30:56.640Z,49.45
2023-01-08T14:33:34.472Z,46.33
2023-01-08T14:36:04.016Z,50.83
2023-01-08T14:38:31.145Z,44.10
2023-01-08T14:41:12.010Z,43.40
2023-01-08T14:43:43.215Z,44.28
2023-01-08T14:46:36.756Z,45.20
2023-01-08T14:49:04.120Z,48.15
2023-01-08T14:51:32.415Z,45.28
2023-01-08T14:54:06.554Z,50.75
2023-01-08T14:56:36.476Z,44.25
2023-01-08T14:59:11.952Z,46.17
2023-01-08T15:01:40.242Z,46.35
2023-01-08T15:04:19.367Z,46.33
2023-01-08T15:06:47.233Z,43.87
2023-01-08T15:09:28.327Z,42.75
2023-01-08T15:12:05.895Z,45.75
2023-01-08T15:14:36.948Z,45.42
2023-01-08T15:17:16.134Z,46.22
2023-01-08T15:19:53.334Z,43.47
2023-01-08T15:22:25.041Z,44.30
2023-01-08T15:25:07.833Z,46.47
2023-01-08T15:27:37.597Z,44.42
2023-01-08T15:30:09.267Z,44.88
2023-01-08T15:32:37.673Z,45.58
2023-01-08T15:35:16.554Z,41.80
2023-01-08T15:37:44.911Z,43.65
2023-01-08T15:40:12.963Z,41.28
2023-01-08T15:42:59.349Z,42.90
2023-01-08T15:45:28.942Z,42.53
2023-01-08T15:47:56.691Z,42.45
2023-01-08T15:50:25.867Z,42.70
2023-01-08T15:52:56.474Z,45.00
2023-01-08T15:55:25.315Z,41.30
2023-01-08T15:57:55.435Z,44.47
2023-01-08T16:00:23.252Z,42.30
2023-01-08T16:02:53.326Z,42.83
2023-01-08T16:05:23.944Z,43.60
2023-01-08T16:07:52.218Z,42.22
2023-01-08T16:10:20.243Z,42.03
2023-01-08T16:12:48.337Z,38.70
2023-01-08T16:15:16.283Z,43.17
2023-01-08T16:17:44.719Z,44.65
2023-01-08T16:20:14.447Z,40.75
2023-01-08T16:22:42.619Z,43.67
2023-01-08T16:25:11.071Z,43.70
2023-01-08T16:27:40.410Z,42.05
2023-01-08T16:30:12.730Z,43.08
2023-01-08T16:32:41.117Z,41.60
2023-01-08T16:35:14.883Z,42.70
2023-01-08T16:37:42.823Z,41.17
2023-01-08T16:40:11.291Z,42.40
2023-01-08T16:42:39.414Z,43.08
2023-01-08T16:45:09.064Z,41.80
2023-01-08T16:50:08.262Z,44.50
2023-01-08T16:52:38.330Z,41.65
2023-01-08T16:55:06.819Z,40.53
2023-01-08T16:57:34.623Z,42.08
2023-01-08T17:00:02.586Z,43.08
2023-01-08T17:02:31.011Z,41.17
2023-01-08T17:04:59.029Z,41.13
2023-01-08T17:07:27.419Z,40.38
2023-01-08T17:09:54.928Z,43.05
2023-01-08T17:12:22.654Z,39.80
2023-01-08T17:14:50.934Z,42.55
2023-01-08T17:17:19.097Z,40.10
2023-01-08T17:19:46.695Z,40.78
2023-01-08T17:22:14.412Z,39.22
2023-01-08T17:24:42.040Z,38.83
2023-01-08T17:27:11.450Z,36.22
2023-01-08T17:29:39.160Z,39.00
2023-01-08T17:32:07.045Z,41.05
2023-01-08T17:34:34.595Z,40.08
2023-01-08T17:37:02.519Z,39.65
2023-01-08T17:39:30.108Z,41.00
2023-01-08T17:42:16.276Z,42.75
2023-01-08T17:44:44.010Z,43.58
2023-01-08T17:47:12.335Z,50.92
2023-01-08T17:49:39.976Z,57.08
2023-01-08T17:52:10.152Z,47.83
2023-01-08T17:54:38.595Z,45.75
2023-01-08T17:57:06.583Z,43.60
2023-01-08T17:59:34.131Z,44.30
2023-01-08T18:02:02.089Z,45.60
2023-01-08T18:04:30.057Z,54.83
2023-01-08T18:06:59.505Z,47.05
2023-01-08T18:09:27.233Z,41.40
2023-01-08T18:11:55.402Z,39.92
2023-01-08T18:14:23.187Z,41.45
2023-01-08T18:16:51.459Z,43.90
2023-01-08T18:19:20.526Z,39.88
2023-01-08T18:21:49.009Z,41.72
2023-01-08T18:24:16.909Z,38.95
2023-01-08T18:26:46.796Z,36.97
2023-01-08T18:29:14.527Z,39.95
2023-01-08T18:31:45.813Z,38.65
2023-01-08T18:34:15.503Z,47.47
2023-01-08T18:36:43.785Z,41.97
2023-01-08T18:39:12.842Z,39.90
2023-01-08T18:41:59.220Z,40.70
2023-01-08T18:44:26.867Z,40.38
2023-01-08T18:46:54.650Z,41.40
2023-01-08T18:49:23.710Z,43.53
2023-01-08T18:51:51.923Z,37.05
2023-01-08T18:54:19.622Z,43.97
2023-01-08T18:56:48.028Z,47.97
2023-01-08T18:59:15.425Z,43.28
2023-01-08T19:01:43.237Z,45.50
2023-01-08T19:04:16.894Z,45.15
2023-01-08T19:06:45.369Z,37.15
2023-01-08T19:09:15.092Z,37.72
2023-01-08T19:14:13.279Z,41.47
2023-01-08T19:16:43.754Z,53.47
2023-01-08T19:19:11.445Z,42.58
2023-01-08T19:21:39.240Z,41.30
2023-01-08T19:24:07.415Z,44.97
2023-01-08T19:26:35.454Z,45.60
2023-01-08T19:29:04.882Z,46.03
2023-01-08T19:31:33.723Z,42.58
2023-01-08T19:34:01.956Z,41.00
2023-01-08T19:36:29.921Z,44.03
2023-01-08T19:38:58.168Z,41.67
2023-01-08T19:41:45.118Z,42.83
2023-01-08T19:44:13.231Z,40.53
2023-01-08T19:46:42.587Z,40.38
2023-01-08T19:49:12.050Z,45.03
2023-01-08T19:51:40.114Z,41.45
2023-01-08T19:54:08.086Z,46.97
2023-01-08T19:56:35.959Z,44.83
2023-01-08T19:59:03.983Z,46.85
2023-01-08T20:01:33.968Z,46.30
2023-01-08T20:04:01.593Z,43.17
2023-01-08T20:06:29.841Z,44.10
2023-01-08T20:08:59.905Z,46.40
2023-01-08T20:11:30.093Z,47.35
2023-01-08T20:14:03.192Z,44.33
2023-01-08T20:16:32.405Z,51.67
2023-01-08T20:19:04.776Z,42.03
2023-01-08T20:21:34.167Z,44.72
2023-01-08T20:24:08.495Z,42.28
2023-01-08T20:26:37.235Z,47.88
2023-01-08T20:29:05.687Z,46.42
2023-01-08T20:31:34.620Z,44.90
2023-01-08T20:34:09.924Z,45.42
2023-01-08T20:36:38.506Z,42.30
2023-01-08T20:39:09.443Z,52.85
2023-01-08T20:41:37.287Z,48.38
2023-01-08T20:44:07.012Z,43.95
2023-01-08T20:46:36.901Z,40.75
2023-01-08T20:49:11.731Z,40.67
2023-01-08T20:51:44.075Z,39.65
2023-01-08T20:54:14.671Z,41.25
2023-01-08T20:56:44.098Z,41.85
2023-01-08T20:59:12.109Z,44.65
2023-01-08T21:01:40.622Z,39.28
2023-01-08T21:04:09.491Z,42.13
2023-01-08T21:06:37.759Z,41.97
2023-01-08T21:09:12.359Z,41.85
2023-01-08T21:11:41.524Z,39.50
2023-01-08T21:14:09.495Z,39.87
2023-01-08T21:16:48.868Z,37.85
2023-01-08T21:19:17.163Z,37.85
2023-01-08T21:21:45.990Z,39.05
2023-01-08T21:24:15.207Z,37.55
2023-01-08T21:26:45.794Z,39.95
2023-01-08T21:31:41.508Z,36.28
2023-01-08T21:34:10.696Z,39.35
2023-01-08T21:36:39.435Z,39.60
2023-01-08T21:39:07.503Z,41.25
2023-01-08T21:41:54.072Z,37.50
2023-01-08T21:44:42.528Z,39.50
2023-01-08T21:47:17.053Z,38.88
2023-01-08T21:49:46.190Z,39.15
2023-01-08T21:52:32.929Z,40.30
2023-01-08T21:55:01.120Z,38.30
2023-01-08T21:57:29.062Z,41.15
2023-01-08T21:59:57.349Z,41.35
2023-01-08T22:02:25.737Z,39.47
2023-01-08T22:05:06.730Z,39.45
2023-01-08T22:07:34.710Z,39.10
2023-01-08T22:10:03.032Z,37.85
2023-01-08T22:12:31.091Z,37.28
2023-01-08T22:14:58.521Z,36.55
2023-01-08T22:17:30.751Z,35.90
2023-01-08T22:19:58.343Z,37.78
2023-01-08T22:22:26.016Z,36.85
2023-01-08T22:24:53.733Z,37.03
2023-01-08T22:27:22.323Z,40.17
2023-01-08T22:29:49.730Z,39.40
2023-01-08T22:32:19.735Z,37.35
2023-01-08T22:34:47.063Z,35.53
2023-01-08T22:37:14.707Z,37.72
2023-01-08T22:39:41.812Z,37.35
2023-01-08T22:42:09.351Z,35.72
2023-01-08T22:44:36.796Z,35.47
2023-01-08T22:47:06.131Z,34.92
2023-01-08T22:49:33.558Z,35.13
2023-01-08T22:52:01.207Z,34.22
2023-01-08T22:54:28.466Z,33.67
2023-01-08T22:56:55.950Z,31.60
2023-01-08T22:59:23.106Z,31.02
2023-01-08T23:01:50.566Z,31.63
2023-01-08T23:04:17.749Z,38.63
2023-01-08T23:06:45.491Z,33.42
2023-01-08T23:09:12.874Z,35.88
2023-01-08T23:11:40.472Z,35.28
2023-01-08T23:14:07.646Z,33.95
2023-01-08T23:16:35.959Z,35.20
2023-01-08T23:19:03.193Z,34.67
2023-01-08T23:21:30.565Z,41.28
2023-01-08T23:23:57.847Z,38.28
2023-01-08T23:26:28.684Z,36.45
2023-01-08T23:28:57.116Z,37.40
2023-01-08T23:31:27.087Z,34.83
2023-01-08T23:33:54.814Z,34.95
2023-01-08T23:36:22.701Z,36.53
2023-01-08T23:38:54.814Z,37.40
2023-01-08T23:41:31.672Z,36.63
2023-01-08T23:44:05.810Z,37.05
2023-01-08T23:46:34.575Z,36.83
2023-01-08T23:49:01.729Z,39.28
2023-01-08T23:51:29.510Z,37.40
2023-01-08T23:53:56.721Z,37.67
2023-01-08T23:56:24.941Z,36.55
2023-01-08T23:58:53.180Z,36.53
